Time;durP1;ratioP1;P1;durP2;ratioP2;P2;SDS_P1;SDS_P2;PMS_P1;PMS_P2;Temp;Humidity;BMP_temperature;BMP_pressure;BME280_temperature;BME280_humidity;BME280_pressure;Samples;Min_cycle;Max_cycle;Signal;HPM_P1;HPM_P2
2023/03/12 00:02:07;;;;;;;3.63;2.00;;;0.30;21.10;;;;;;5031090;28;20509;-55
2023/03/12 00:04:34;;;;;;;2.43;1.90;;;0.30;75.80;;;;;;5028362;28;20984;-55
2023/03/12 00:07:01;;;;;;;4.20;2.23;;;0.20;87.00;;;;;;5028581;28;20597;-54
2023/03/12 00:09:28;;;;;;;3.20;2.03;;;0.30;76.00;;;;;;5026870;28;20513;-55
2023/03/12 00:11:56;;;;;;;1.70;1.60;;;0.30;20.70;;;;;;5032869;28;20545;-55
2023/03/12 00:14:22;;;;;;;8.03;2.30;;;0.30;77.70;;;;;;5029605;28;20521;-55
2023/03/12 00:16:49;;;;;;;4.60;2.13;;;0.30;79.80;;;;;;5033805;28;20513;-57
2023/03/12 00:19:16;;;;;;;2.97;2.00;;;0.30;20.40;;;;;;5028226;28;20467;-56
2023/03/12 00:21:42;;;;;;;4.87;2.30;;;0.30;84.70;;;;;;5030610;28;20529;-55
2023/03/12 00:24:09;;;;;;;2.40;2.00;;;0.20;99.90;;;;;;5027517;28;20459;-56
2023/03/12 00:26:35;;;;;;;3.83;2.13;;;0.30;99.90;;;;;;5029519;28;20869;-56
2023/03/12 00:29:03;;;;;;;2.83;1.90;;;0.30;96.10;;;;;;5030250;28;20464;-56
2023/03/12 00:31:32;;;;;;;6.07;2.30;;;0.40;98.20;;;;;;5034718;28;20980;-56
2023/03/12 00:34:00;;;;;;;2.30;2.10;;;0.40;86.90;;;;;;5032396;28;20529;-55
2023/03/12 00:36:28;;;;;;;11.90;1.73;;;0.50;72.00;;;;;;5034671;28;20496;-55
2023/03/12 00:38:56;;;;;;;3.70;2.20;;;0.60;21.10;;;;;;5026997;28;20463;-55
2023/03/12 00:41:23;;;;;;;6.20;2.10;;;0.60;22.90;;;;;;5032912;28;20505;-55
2023/03/12 00:43:51;;;;;;;4.00;1.80;;;0.60;24.20;;;;;;5034524;28;20439;-55
2023/03/12 00:46:20;;;;;;;3.50;2.00;;;0.60;24.80;;;;;;5033149;28;20466;-55
2023/03/12 00:48:47;;;;;;;3.93;1.80;;;0.60;27.10;;;;;;5033656;28;20524;-54
2023/03/12 00:51:13;;;;;;;4.43;2.17;;;0.50;25.80;;;;;;5032206;28;20536;-58
2023/03/12 00:53:40;;;;;;;8.53;2.03;;;0.40;22.30;;;;;;5031108;28;20601;-56
2023/03/12 00:56:07;;;;;;;6.30;2.20;;;0.40;21.50;;;;;;5031917;28;20520;-56
2023/03/12 00:58:34;;;;;;;10.33;3.23;;;0.30;21.50;;;;;;5026365;28;20451;-55
2023/03/12 01:01:00;;;;;;;3.17;2.50;;;0.20;84.10;;;;;;5031482;28;20490;-56
2023/03/12 01:03:28;;;;;;;2.80;2.00;;;0.20;98.00;;;;;;5032052;28;20566;-56
2023/03/12 01:05:55;;;;;;;2.57;1.90;;;0.20;94.70;;;;;;5032108;28;20541;-55
2023/03/12 01:08:22;;;;;;;2.20;1.80;;;0.30;99.90;;;;;;5033284;28;20490;-57
2023/03/12 01:10:49;;;;;;;2.57;2.27;;;0.30;93.30;;;;;;5026454;28;20495;-55
2023/03/12 01:13:17;;;;;;;3.10;2.53;;;0.40;78.30;;;;;;5028662;28;20549;-52
2023/03/12 01:15:43;;;;;;;5.87;2.87;;;0.50;74.40;;;;;;5031052;28;20965;-53
2023/03/12 01:18:10;;;;;;;4.33;2.37;;;0.50;20.30;;;;;;5030844;28;20497;-52
2023/03/12 01:20:39;;;;;;;6.60;2.47;;;0.50;75.00;;;;;;5028617;28;20530;-53
2023/03/12 01:23:06;;;;;;;3.27;1.60;;;0.30;73.70;;;;;;5031553;28;20505;-53
2023/03/12 01:25:33;;;;;;;6.20;2.20;;;0.40;91.10;;;;;;5028476;28;20460;-53
2023/03/12 01:28:00;;;;;;;6.10;1.93;;;0.30;99.90;;;;;;5022327;28;20460;-51
2023/03/12 01:30:28;;;;;;;5.40;2.07;;;0.40;99.90;;;;;;5032450;28;20485;-52
2023/03/12 01:32:54;;;;;;;3.23;1.77;;;0.40;99.90;;;;;;5029017;28;20538;-53
2023/03/12 01:35:21;;;;;;;5.20;1.80;;;0.40;99.90;;;;;;5030473;28;20463;-52
2023/03/12 01:37:49;;;;;;;3.70;2.40;;;0.40;91.40;;;;;;5027080;28;21040;-52
2023/03/12 01:40:17;;;;;;;4.80;1.93;;;0.40;97.30;;;;;;5022524;28;20480;-52
2023/03/12 01:42:51;;;;;;;3.40;1.90;;;0.30;97.20;;;;;;5031296;28;20455;-52
2023/03/12 01:46:00;;;;;;;5.23;3.20;;;0.20;99.90;;;;;;5025827;28;20517;-52
2023/03/12 01:48:30;;;;;;;4.43;2.40;;;0.20;99.90;;;;;;4964932;28;20807;-52
2023/03/12 01:50:56;;;;;;;3.23;2.43;;;0.20;99.90;;;;;;4970199;28;20543;-52
2023/03/12 01:53:24;;;;;;;4.43;2.57;;;0.20;99.90;;;;;;4991849;28;20496;-52
2023/03/12 01:55:52;;;;;;;2.83;2.30;;;0.20;99.90;;;;;;5023820;28;20451;-52
2023/03/12 01:58:18;;;;;;;2.60;1.90;;;0.10;99.90;;;;;;5031071;28;20976;-52
2023/03/12 02:00:45;;;;;;;2.90;2.20;;;0.10;99.90;;;;;;5033150;28;20525;-53
2023/03/12 02:03:13;;;;;;;1.90;1.73;;;0.00;99.90;;;;;;5030824;28;20471;-52
2023/03/12 02:05:45;;;;;;;5.77;3.13;;;-0.10;99.90;;;;;;5032822;28;20922;-52
2023/03/12 02:08:13;;;;;;;10.97;2.40;;;-0.20;99.90;;;;;;5030981;28;20540;-52
2023/03/12 02:10:42;;;;;;;3.67;2.20;;;-0.20;99.90;;;;;;5027279;28;20841;-53
2023/03/12 02:13:10;;;;;;;10.37;2.60;;;-0.20;99.90;;;;;;5028161;28;20540;-52
2023/03/12 02:15:37;;;;;;;3.07;1.67;;;-0.20;99.90;;;;;;5028217;28;20459;-52
2023/03/12 02:18:04;;;;;;;4.43;2.13;;;-0.30;99.90;;;;;;5032744;28;20941;-52
2023/03/12 02:20:37;;;;;;;5.80;2.63;;;-0.40;99.90;;;;;;5029194;28;20589;-53
2023/03/12 02:23:08;;;;;;;1.90;1.70;;;-0.40;99.90;;;;;;5027742;28;20991;-52
2023/03/12 02:25:40;;;;;;;4.87;2.60;;;-0.50;99.90;;;;;;5030514;28;20463;-52
2023/03/12 02:28:09;;;;;;;2.97;2.10;;;-0.50;99.90;;;;;;5028806;28;20463;-53
2023/03/12 02:30:37;;;;;;;3.03;1.90;;;-0.50;99.90;;;;;;5031404;28;20468;-53
2023/03/12 02:33:07;;;;;;;6.37;2.07;;;-0.60;99.90;;;;;;5031722;28;20483;-53
2023/03/12 02:35:34;;;;;;;3.23;1.77;;;-0.50;99.90;;;;;;5022896;28;20460;-51
2023/03/12 02:38:02;;;;;;;6.90;2.47;;;-0.60;99.90;;;;;;5031566;28;20509;-53
2023/03/12 02:40:33;;;;;;;7.57;2.73;;;-0.70;99.90;;;;;;5031060;28;20479;-52
2023/03/12 02:43:02;;;;;;;2.43;2.07;;;-0.80;99.90;;;;;;5031534;28;20439;-53
2023/03/12 02:45:29;;;;;;;2.17;2.00;;;-0.80;99.90;;;;;;5029137;28;20625;-52
2023/03/12 02:47:56;;;;;;;2.33;2.13;;;-0.80;99.90;;;;;;5025476;28;20979;-52
2023/03/12 02:50:23;;;;;;;3.63;2.00;;;-0.90;99.90;;;;;;5024214;28;20541;-52
2023/03/12 02:52:49;;;;;;;4.50;2.17;;;-1.00;94.00;;;;;;5027849;28;20483;-52
2023/03/12 02:55:16;;;;;;;3.63;2.50;;;-1.00;83.00;;;;;;5025230;28;20502;-52
2023/03/12 02:57:42;;;;;;;5.33;2.30;;;-1.00;74.40;;;;;;5026265;28;20525;-54
2023/03/12 03:00:14;;;;;;;7.53;2.47;;;-1.10;61.00;;;;;;5028835;28;20521;-52
2023/03/12 03:02:41;;;;;;;2.90;2.10;;;-1.10;54.60;;;;;;5026864;28;20459;-52
2023/03/12 03:05:09;;;;;;;6.10;2.70;;;-1.10;47.40;;;;;;5031598;28;20447;-53
2023/03/12 03:07:35;;;;;;;2.47;2.27;;;-1.10;43.80;;;;;;5025133;28;20463;-52
2023/03/12 03:10:03;;;;;;;4.20;2.10;;;-1.10;34.10;;;;;;5027932;28;20487;-52
2023/03/12 03:12:29;;;;;;;2.60;2.40;;;-1.20;30.20;;;;;;5026847;28;20962;-53
2023/03/12 03:14:56;;;;;;;3.13;2.60;;;-1.10;28.50;;;;;;5030691;28;20447;-52
2023/03/12 03:17:24;;;;;;;2.60;2.43;;;-1.20;25.60;;;;;;5026237;28;20486;-51
2023/03/12 03:19:51;;;;;;;5.90;2.53;;;-1.20;24.10;;;;;;5023670;28;20476;-53
2023/03/12 03:22:18;;;;;;;4.37;2.93;;;-1.10;99.90;;;;;;5025884;28;20557;-53
2023/03/12 03:24:45;;;;;;;7.23;2.60;;;-1.20;88.40;;;;;;5028628;28;20953;-52
2023/03/12 03:27:12;;;;;;;5.00;2.80;;;-1.20;99.90;;;;;;5028723;28;20552;-52
2023/03/12 03:29:39;;;;;;;2.00;1.80;;;-1.30;99.90;;;;;;5023264;28;20847;-52
2023/03/12 03:32:06;;;;;;;2.50;2.30;;;-1.30;99.90;;;;;;5026719;28;20514;-52
2023/03/12 03:34:34;;;;;;;6.60;2.60;;;-1.30;99.90;;;;;;5025228;28;20568;-53
2023/03/12 03:37:00;;;;;;;18.20;3.50;;;-1.30;99.90;;;;;;5028062;28;20517;-53
2023/03/12 03:39:28;;;;;;;3.23;2.00;;;-1.30;99.90;;;;;;5024590;28;20542;-52
2023/03/12 03:41:55;;;;;;;3.97;2.50;;;-1.30;99.90;;;;;;5028999;28;20892;-52
2023/03/12 03:44:22;;;;;;;6.50;2.80;;;-1.30;99.90;;;;;;5024781;28;20828;-52
2023/03/12 03:46:49;;;;;;;3.43;2.00;;;-1.40;99.90;;;;;;5026457;28;20469;-53
2023/03/12 03:49:16;;;;;;;5.80;2.40;;;-1.30;99.90;;;;;;5025857;28;20489;-52
2023/03/12 03:51:44;;;;;;;5.43;2.47;;;-1.30;99.90;;;;;;5029673;28;20859;-52
2023/03/12 03:54:10;;;;;;;2.87;2.57;;;-1.30;99.90;;;;;;5024511;28;20518;-52
2023/03/12 03:56:37;;;;;;;2.70;2.47;;;-1.40;99.90;;;;;;5027568;28;20520;-53
2023/03/12 03:59:04;;;;;;;3.33;2.40;;;-1.40;99.90;;;;;;5026810;28;20459;-53
2023/03/12 04:01:31;;;;;;;2.10;1.93;;;-1.50;99.90;;;;;;5026291;28;20886;-52
2023/03/12 04:03:57;;;;;;;4.50;3.10;;;-1.50;99.90;;;;;;5029006;28;20528;-54
2023/03/12 04:06:24;;;;;;;4.50;2.80;;;-1.50;99.90;;;;;;5022612;28;20497;-52
2023/03/12 04:08:52;;;;;;;4.53;2.90;;;-1.50;99.90;;;;;;5026932;28;20520;-52
2023/03/12 04:11:21;;;;;;;5.70;2.90;;;-1.50;99.90;;;;;;5025356;28;20565;-53
2023/03/12 04:13:48;;;;;;;5.00;3.03;;;-1.50;99.90;;;;;;5028463;28;21020;-52
2023/03/12 04:16:16;;;;;;;3.63;2.57;;;-1.60;99.90;;;;;;5022366;28;20464;-52
2023/03/12 04:18:43;;;;;;;6.33;2.40;;;-1.60;99.90;;;;;;5027267;28;20560;-52
2023/03/12 04:21:12;;;;;;;5.00;2.43;;;-1.60;99.90;;;;;;5028016;28;20503;-52
2023/03/12 04:23:39;;;;;;;5.40;3.13;;;-1.60;99.90;;;;;;5020819;28;21236;-52
2023/03/12 04:26:07;;;;;;;10.60;2.70;;;-1.60;99.90;;;;;;5024152;28;20930;-52
2023/03/12 04:28:34;;;;;;;4.20;2.80;;;-1.60;99.90;;;;;;5023873;28;20870;-52
2023/03/12 04:31:03;;;;;;;3.53;2.80;;;-1.60;99.90;;;;;;5024686;28;20484;-53
2023/03/12 04:33:32;;;;;;;6.03;3.10;;;-1.60;99.90;;;;;;5021403;28;20592;-52
2023/03/12 04:35:59;;;;;;;3.03;2.17;;;-1.60;99.90;;;;;;5026670;28;21111;-53
2023/03/12 04:38:28;;;;;;;3.13;2.70;;;-1.70;99.90;;;;;;5033489;28;21021;-53
2023/03/12 04:40:59;;;;;;;4.50;2.40;;;-1.60;99.90;;;;;;5029550;28;20484;-53
2023/03/12 04:43:28;;;;;;;6.00;2.80;;;-1.70;99.90;;;;;;5027193;28;20462;-53
2023/03/12 04:45:55;;;;;;;2.77;2.53;;;-1.70;99.90;;;;;;5028225;28;20491;-52
2023/03/12 04:48:22;;;;;;;8.13;3.00;;;-1.70;99.90;;;;;;5029746;28;20609;-52
2023/03/12 04:50:49;;;;;;;3.90;2.13;;;-1.70;99.90;;;;;;5028225;28;20974;-52
2023/03/12 04:53:16;;;;;;;3.77;2.70;;;-1.70;99.90;;;;;;5027519;28;20458;-53
2023/03/12 04:55:42;;;;;;;5.13;2.57;;;-1.80;99.90;;;;;;5032208;28;20518;-53
2023/03/12 04:58:09;;;;;;;5.53;2.97;;;-1.80;99.90;;;;;;5032893;28;20944;-53
2023/03/12 05:00:39;;;;;;;4.60;3.07;;;-1.80;99.90;;;;;;5027858;28;20932;-52
2023/03/12 05:03:06;;;;;;;5.03;3.77;;;-1.70;99.90;;;;;;5033570;28;20495;-52
2023/03/12 05:05:34;;;;;;;5.67;2.60;;;-1.70;99.90;;;;;;5024149;28;20469;-52
2023/03/12 05:08:01;;;;;;;4.30;2.77;;;-1.80;99.90;;;;;;5026860;28;20463;-52
2023/03/12 05:10:27;;;;;;;4.23;2.77;;;-1.80;99.90;;;;;;5028563;28;20482;-53
2023/03/12 05:12:54;;;;;;;2.83;2.40;;;-1.80;99.90;;;;;;5026589;28;20452;-52
2023/03/12 05:15:21;;;;;;;5.63;2.87;;;-1.80;99.90;;;;;;5029994;28;20901;-52
2023/03/12 05:17:48;;;;;;;4.43;2.70;;;-1.80;99.90;;;;;;5027165;28;20474;-53
2023/03/12 05:20:16;;;;;;;4.87;2.77;;;-1.80;99.90;;;;;;5028707;28;21016;-53
2023/03/12 05:22:43;;;;;;;3.03;2.70;;;-1.80;99.90;;;;;;5032281;28;20912;-53
2023/03/12 05:25:11;;;;;;;4.13;2.90;;;-1.80;99.90;;;;;;5029219;28;20945;-53
2023/03/12 05:27:38;;;;;;;4.33;3.40;;;-1.80;99.90;;;;;;5031563;28;20458;-53
2023/03/12 05:30:06;;;;;;;11.73;3.23;;;-1.80;99.90;;;;;;5028264;28;20487;-52
2023/03/12 05:32:33;;;;;;;5.10;2.40;;;-1.80;99.90;;;;;;5026642;28;20486;-53
2023/03/12 05:35:01;;;;;;;3.40;2.93;;;-1.80;99.90;;;;;;5024693;28;20836;-53
2023/03/12 05:37:28;;;;;;;2.60;2.27;;;-1.80;99.90;;;;;;5028290;28;20489;-52
2023/03/12 05:39:54;;;;;;;3.70;3.00;;;-1.80;99.90;;;;;;5027994;28;20456;-53
2023/03/12 05:42:23;;;;;;;3.70;2.63;;;-1.80;99.90;;;;;;5032609;28;20464;-53
2023/03/12 05:44:50;;;;;;;6.40;3.40;;;-1.70;99.90;;;;;;5027861;28;20468;-53
2023/03/12 05:47:16;;;;;;;10.70;3.57;;;-1.80;99.90;;;;;;5022476;28;20470;-53
2023/03/12 05:49:43;;;;;;;4.37;2.83;;;-1.80;99.90;;;;;;5022084;28;20556;-53
2023/03/12 05:52:11;;;;;;;7.03;2.80;;;-1.80;99.90;;;;;;5027986;28;20538;-53
2023/03/12 05:54:38;;;;;;;4.27;2.93;;;-1.80;99.90;;;;;;5029413;28;20566;-53
2023/03/12 05:57:05;;;;;;;3.23;2.83;;;-1.80;99.90;;;;;;5027910;28;20552;-53
2023/03/12 05:59:31;;;;;;;3.43;3.13;;;-1.80;99.90;;;;;;5024079;28;20511;-53
2023/03/12 06:01:58;;;;;;;3.27;2.93;;;-1.70;99.90;;;;;;5028927;28;20550;-52
2023/03/12 06:04:25;;;;;;;4.67;2.63;;;-1.70;99.90;;;;;;5026027;28;20537;-53
2023/03/12 06:06:51;;;;;;;3.57;3.20;;;-1.70;99.90;;;;;;5024072;28;20836;-53
2023/03/12 06:09:19;;;;;;;9.20;3.50;;;-1.60;99.90;;;;;;5022344;28;20850;-52
2023/03/12 06:11:46;;;;;;;7.80;2.93;;;-1.60;99.90;;;;;;5027406;28;20553;-53
2023/03/12 06:14:13;;;;;;;3.60;2.87;;;-1.60;99.90;;;;;;5026889;28;20519;-52
2023/03/12 06:16:40;;;;;;;4.87;3.57;;;-1.60;99.90;;;;;;5023009;28;20451;-53
2023/03/12 06:19:07;;;;;;;3.40;3.10;;;-1.50;99.90;;;;;;5023405;28;20462;-53
2023/03/12 06:21:35;;;;;;;6.57;3.93;;;-1.40;99.90;;;;;;5021599;28;20488;-53
2023/03/12 06:24:02;;;;;;;5.13;2.93;;;-1.40;99.90;;;;;;5025486;28;20491;-53
2023/03/12 06:26:30;;;;;;;4.80;3.50;;;-1.30;99.90;;;;;;5022612;28;20487;-51
2023/03/12 06:28:57;;;;;;;4.23;3.73;;;-1.20;99.90;;;;;;5026513;28;20487;-52
2023/03/12 06:31:23;;;;;;;11.20;4.20;;;-1.20;99.90;;;;;;5022406;28;20507;-52
2023/03/12 06:33:52;;;;;;;6.67;3.37;;;-1.10;1.40;;;;;;5025237;28;20487;-52
2023/03/12 06:36:19;;;;;;;5.80;3.03;;;-1.00;99.90;;;;;;5026744;28;20459;-53
2023/03/12 06:38:46;;;;;;;5.00;3.10;;;-0.90;99.90;;;;;;5030455;28;20839;-52
2023/03/12 06:41:14;;;;;;;5.00;3.00;;;-0.80;99.90;;;;;;5023009;28;20506;-53
2023/03/12 06:43:43;;;;;;;4.20;3.70;;;-0.70;99.90;;;;;;5023386;28;20561;-52
2023/03/12 06:46:13;;;;;;;3.93;2.70;;;-0.60;99.90;;;;;;5028911;28;20521;-52
2023/03/12 06:48:40;;;;;;;5.57;2.90;;;-0.50;99.90;;;;;;5023401;28;20920;-52
2023/03/12 06:51:08;;;;;;;5.67;3.33;;;-0.40;99.90;;;;;;5024314;28;20597;-52
2023/03/12 06:53:35;;;;;;;5.73;3.17;;;-0.40;99.90;;;;;;5032072;28;20815;-53
2023/03/12 06:56:02;;;;;;;3.43;3.13;;;-0.30;99.90;;;;;;5030029;28;20992;-52
2023/03/12 06:58:28;;;;;;;4.80;2.83;;;-0.20;99.90;;;;;;5027902;28;20879;-53
2023/03/12 07:00:57;;;;;;;2.80;2.60;;;-0.10;99.90;;;;;;5028671;28;20988;-53
2023/03/12 07:03:24;;;;;;;8.17;3.03;;;0.00;99.90;;;;;;5031228;28;20463;-51
2023/03/12 07:05:51;;;;;;;4.83;3.07;;;0.00;99.90;;;;;;5029600;28;20467;-53
2023/03/12 07:08:18;;;;;;;5.47;3.60;;;0.00;86.80;;;;;;5030643;28;20958;-53
2023/03/12 07:10:46;;;;;;;3.40;3.00;;;0.10;85.90;;;;;;5020836;28;20524;-53
2023/03/12 07:13:13;;;;;;;5.53;3.57;;;0.30;24.10;;;;;;5030353;28;21047;-52
2023/03/12 07:15:39;;;;;;;2.90;2.70;;;0.40;42.10;;;;;;5019657;28;20488;-52
2023/03/12 07:18:09;;;;;;;7.30;3.40;;;0.50;45.40;;;;;;5028419;28;20456;-53
2023/03/12 07:20:38;;;;;;;8.23;3.80;;;0.60;60.40;;;;;;5030850;28;20487;-53
2023/03/12 07:23:05;;;;;;;6.90;3.33;;;0.70;74.70;;;;;;5029008;28;20499;-52
2023/03/12 07:25:34;;;;;;;4.63;3.20;;;0.80;98.80;;;;;;5026247;28;21030;-52
2023/03/12 07:28:01;;;;;;;3.83;3.30;;;1.00;99.90;;;;;;5028246;28;20880;-52
2023/03/12 07:30:32;;;;;;;3.60;3.17;;;1.20;99.90;;;;;;5024349;28;20833;-52
2023/03/12 07:32:58;;;;;;;5.17;3.00;;;1.40;99.90;;;;;;5030200;28;20474;-52
2023/03/12 07:35:27;;;;;;;4.53;3.10;;;1.50;99.90;;;;;;5012587;28;20491;-52
2023/03/12 07:37:53;;;;;;;14.60;3.13;;;1.60;99.90;;;;;;5027353;28;20466;-52
2023/03/12 07:40:20;;;;;;;4.53;3.47;;;1.80;99.90;;;;;;5030226;28;21273;-52
2023/03/12 07:42:47;;;;;;;9.63;3.30;;;2.00;99.90;;;;;;5018619;28;20467;-51
2023/03/12 07:45:13;;;;;;;4.60;2.70;;;2.00;99.90;;;;;;5028138;28;20511;-53
2023/03/12 07:47:40;;;;;;;5.93;3.50;;;2.10;99.90;;;;;;5029805;28;20464;-51
2023/03/12 07:50:07;;;;;;;3.83;3.40;;;2.10;99.90;;;;;;5029625;28;20568;-52
2023/03/12 07:52:35;;;;;;;7.60;3.30;;;2.10;90.30;;;;;;5026505;28;20463;-51
2023/03/12 07:55:01;;;;;;;4.03;3.00;;;2.20;99.90;;;;;;5024187;28;20515;-52
2023/03/12 07:57:28;;;;;;;6.40;3.63;;;2.20;98.00;;;;;;5030587;28;20883;-52
2023/03/12 07:59:55;;;;;;;6.73;3.00;;;2.30;79.20;;;;;;5030726;28;20450;-52
2023/03/12 08:02:21;;;;;;;3.63;2.80;;;2.40;22.40;;;;;;5031569;28;20751;-53
2023/03/12 08:04:48;;;;;;;3.23;2.93;;;2.70;23.20;;;;;;5030147;28;20470;-53
2023/03/12 08:07:15;;;;;;;5.10;3.30;;;2.70;41.40;;;;;;5029727;28;20513;-52
2023/03/12 08:09:43;;;;;;;5.53;3.03;;;2.90;45.00;;;;;;5024439;28;20529;-51
2023/03/12 08:12:09;;;;;;;4.70;2.77;;;3.00;45.60;;;;;;5033620;28;20477;-51
2023/03/12 08:14:36;;;;;;;5.13;3.80;;;3.10;48.00;;;;;;5033853;28;20585;-51
2023/03/12 08:17:03;;;;;;;5.40;3.13;;;3.20;59.20;;;;;;5026652;28;20532;-53
2023/03/12 08:19:29;;;;;;;5.23;3.03;;;3.40;66.20;;;;;;5033379;28;20458;-51
2023/03/12 08:21:56;;;;;;;5.70;3.37;;;3.70;74.40;;;;;;5035040;28;20547;-56
2023/03/12 08:24:24;;;;;;;7.00;3.00;;;3.90;84.60;;;;;;5034511;28;20467;-51
2023/03/12 08:26:52;;;;;;;4.20;2.87;;;4.40;93.00;;;;;;5034702;28;20451;-53
2023/03/12 08:29:19;;;;;;;3.63;3.13;;;4.60;99.90;;;;;;5035275;28;20447;-51
2023/03/12 08:31:45;;;;;;;5.50;2.93;;;4.70;99.90;;;;;;5033520;28;21012;-51
2023/03/12 08:34:12;;;;;;;3.27;2.90;;;4.70;99.90;;;;;;5031960;28;20463;-54
2023/03/12 08:36:38;;;;;;;5.63;3.10;;;4.40;99.90;;;;;;5034381;28;20510;-52
2023/03/12 08:39:05;;;;;;;4.90;3.07;;;4.40;99.90;;;;;;5032716;28;20486;-52
2023/03/12 08:41:32;;;;;;;3.27;2.70;;;4.70;99.90;;;;;;5025096;28;20537;-52
2023/03/12 08:44:00;;;;;;;7.30;3.10;;;4.90;99.90;;;;;;5027793;28;20467;-51
2023/03/12 08:46:26;;;;;;;7.70;3.60;;;4.60;99.90;;;;;;5031014;28;20505;-51
2023/03/12 08:48:53;;;;;;;4.27;3.30;;;4.80;99.90;;;;;;5025163;28;20470;-52
2023/03/12 08:51:20;;;;;;;4.70;2.73;;;5.80;99.90;;;;;;5019606;28;20478;-51
2023/03/12 08:53:47;;;;;;;2.77;2.43;;;6.30;99.90;;;;;;5022460;28;20452;-51
2023/03/12 08:56:13;;;;;;;3.33;2.50;;;6.60;99.90;;;;;;5020808;28;20474;-51
2023/03/12 08:58:40;;;;;;;4.70;2.87;;;6.20;99.90;;;;;;5030857;28;20459;-52
2023/03/12 09:01:10;;;;;;;5.90;2.87;;;6.80;99.90;;;;;;5028188;28;21038;-51
2023/03/12 09:03:36;;;;;;;4.30;3.20;;;7.10;99.90;;;;;;5033925;28;20456;-51
2023/03/12 09:06:05;;;;;;;10.60;3.60;;;6.20;99.90;;;;;;5032487;28;20467;-51
2023/03/12 09:08:32;;;;;;;13.57;8.47;;;6.30;99.90;;;;;;5027004;28;20960;-51
2023/03/12 09:11:01;;;;;;;5.73;3.27;;;6.30;99.90;;;;;;5032284;28;20487;-51
2023/03/12 09:13:27;;;;;;;14.70;2.97;;;6.30;99.90;;;;;;5027860;28;20459;-53
2023/03/12 09:15:59;;;;;;;5.50;3.40;;;6.70;99.90;;;;;;5018698;28;20484;-51
2023/03/12 09:18:27;;;;;;;8.77;3.10;;;7.10;99.90;;;;;;5024979;28;21107;-51
2023/03/12 09:20:54;;;;;;;7.57;4.03;;;6.50;99.90;;;;;;5024061;28;21066;-51
2023/03/12 09:23:21;;;;;;;8.63;4.90;;;6.00;99.90;;;;;;5026066;28;21187;-52
2023/03/12 09:25:48;;;;;;;8.83;5.20;;;5.80;99.90;;;;;;5020104;28;20541;-51
2023/03/12 09:28:15;;;;;;;11.57;4.40;;;5.60;99.90;;;;;;5024662;28;20525;-52
2023/03/12 09:30:42;;;;;;;5.63;3.87;;;5.60;99.90;;;;;;5026033;28;20545;-52
2023/03/12 09:33:09;;;;;;;15.70;5.13;;;5.70;99.90;;;;;;5030852;28;20548;-52
2023/03/12 09:35:37;;;;;;;9.87;5.00;;;5.70;99.90;;;;;;5025777;28;20515;-52
2023/03/12 09:38:04;;;;;;;7.00;4.27;;;5.80;99.90;;;;;;5031566;28;20471;-52
2023/03/12 09:40:35;;;;;;;13.47;4.40;;;5.60;99.90;;;;;;5030172;28;20531;-51
2023/03/12 09:43:05;;;;;;;9.83;3.90;;;5.50;99.90;;;;;;5028577;28;20467;-52
2023/03/12 09:45:37;;;;;;;2.83;2.60;;;5.50;99.90;;;;;;5024675;28;20440;-52
2023/03/12 09:48:07;;;;;;;4.57;2.63;;;5.30;99.90;;;;;;5030923;28;20459;-51
2023/03/12 09:50:39;;;;;;;4.93;2.67;;;5.30;99.90;;;;;;5030885;28;20483;-53
2023/03/12 09:53:11;;;;;;;4.77;3.00;;;5.10;99.90;;;;;;5027942;28;20551;-53
2023/03/12 09:55:40;;;;;;;6.83;3.07;;;4.90;99.90;;;;;;5033328;28;20545;-53
2023/03/12 09:58:13;;;;;;;10.63;3.80;;;5.00;99.90;;;;;;5029420;28;20557;-52
2023/03/12 10:00:40;;;;;;;4.80;2.37;;;5.10;99.90;;;;;;5028774;28;20941;-52
2023/03/12 10:03:22;;;;;;;3.93;2.30;;;5.50;99.90;;;;;;5027315;28;20491;-51
2023/03/12 10:06:02;;;;;;;7.40;3.13;;;5.40;99.90;;;;;;5033140;28;20436;-52
2023/03/12 10:08:36;;;;;;;4.57;2.37;;;5.80;99.90;;;;;;5025405;28;20934;-54
2023/03/12 10:11:11;;;;;;;4.90;1.87;;;5.80;99.90;;;;;;5028381;28;21027;-53
2023/03/12 10:13:50;;;;;;;5.07;2.27;;;6.00;99.90;;;;;;5027052;28;20463;-51
2023/03/12 10:16:34;;;;;;;4.47;2.40;;;5.80;99.90;;;;;;5024874;28;20513;-51
2023/03/12 10:19:19;;;;;;;2.63;1.53;;;5.70;99.90;;;;;;5026944;28;20487;-51
2023/03/12 10:21:54;;;;;;;2.10;1.70;;;6.00;99.90;;;;;;5032245;28;20537;-53
2023/03/12 10:24:34;;;;;;;3.03;1.50;;;6.10;99.90;;;;;;5032657;28;20478;-53
2023/03/12 10:27:01;;;;;;;3.03;1.47;;;6.50;99.90;;;;;;5030608;28;20455;-52
2023/03/12 10:29:32;;;;;;;3.40;1.67;;;6.40;99.90;;;;;;5032351;28;20463;-51
2023/03/12 10:32:03;;;;;;;4.47;2.10;;;6.60;99.90;;;;;;5032216;28;20463;-52
2023/03/12 10:34:36;;;;;;;3.00;1.60;;;6.70;99.90;;;;;;5032606;28;20447;-52
2023/03/12 10:37:13;;;;;;;4.90;1.50;;;7.30;99.90;;;;;;5032593;28;20487;-52
2023/03/12 10:39:40;;;;;;;4.33;1.87;;;8.00;99.90;;;;;;5032682;28;20505;-52
2023/03/12 10:42:14;;;;;;;8.47;1.80;;;8.20;99.90;;;;;;5029673;28;20487;-52
2023/03/12 10:44:41;;;;;;;2.93;1.93;;;8.20;99.90;;;;;;5032435;28;20447;-52
2023/03/12 10:47:21;;;;;;;4.13;1.83;;;7.90;99.90;;;;;;5030424;28;20463;-52
2023/03/12 10:49:49;;;;;;;2.43;1.67;;;7.70;99.90;;;;;;5032424;28;20448;-52
2023/03/12 10:52:20;;;;;;;3.00;1.60;;;8.30;99.90;;;;;;5032467;28;20443;-51
2023/03/12 10:54:50;;;;;;;2.20;1.80;;;7.70;99.90;;;;;;5013005;28;20799;-52
2023/03/12 10:57:17;;;;;;;3.07;1.40;;;7.70;99.90;;;;;;5019413;28;20511;-52
2023/03/12 10:59:46;;;;;;;3.13;1.43;;;7.50;99.90;;;;;;5031547;28;20457;-54
2023/03/12 11:02:31;;;;;;;5.23;1.70;;;7.40;99.90;;;;;;5031348;28;20452;-53
2023/03/12 11:04:59;;;;;;;3.77;1.50;;;7.20;99.90;;;;;;5026512;28;20807;-52
2023/03/12 11:07:28;;;;;;;7.13;1.90;;;7.10;99.90;;;;;;5026449;28;20534;-51
2023/03/12 11:10:16;;;;;;;4.43;2.03;;;7.00;99.90;;;;;;5031718;28;20480;-53
2023/03/12 11:12:53;;;;;;;4.37;1.60;;;7.10;99.90;;;;;;5022420;28;20826;-53
2023/03/12 11:15:23;;;;;;;2.47;1.53;;;7.00;99.90;;;;;;5030061;28;20455;-52
2023/03/12 11:17:50;;;;;;;2.30;1.50;;;6.80;99.90;;;;;;5028114;28;20526;-52
2023/03/12 11:20:34;;;;;;;11.73;2.80;;;6.70;99.90;;;;;;5026902;28;20483;-53
2023/03/12 11:23:14;;;;;;;2.87;1.50;;;7.00;99.90;;;;;;5028621;28;20459;-52
2023/03/12 11:25:40;;;;;;;3.80;1.90;;;7.10;99.90;;;;;;5031185;28;20447;-53
2023/03/12 11:28:17;;;;;;;3.50;1.50;;;7.40;99.90;;;;;;5029015;28;20463;-52
2023/03/12 11:30:44;;;;;;;1.93;1.70;;;7.90;99.90;;;;;;5025383;28;20501;-52
2023/03/12 11:33:11;;;;;;;4.17;1.50;;;8.00;99.90;;;;;;5027607;28;21027;-52
2023/03/12 11:35:49;;;;;;;2.13;1.40;;;8.40;99.90;;;;;;5026665;28;20921;-53
2023/03/12 11:38:19;;;;;;;2.70;1.90;;;8.10;99.90;;;;;;5030252;28;20463;-53
2023/03/12 11:41:00;;;;;;;3.17;1.40;;;7.90;99.90;;;;;;5026094;28;20524;-53
2023/03/12 11:43:49;;;;;;;3.50;1.70;;;7.70;99.90;;;;;;5027611;28;21897;-53
2023/03/12 11:46:29;;;;;;;3.40;1.70;;;7.50;99.90;;;;;;5028805;28;20455;-53
2023/03/12 11:49:14;;;;;;;3.57;1.40;;;7.50;99.90;;;;;;5025034;28;20466;-52
2023/03/12 11:51:50;;;;;;;3.03;1.30;;;7.20;99.90;;;;;;5023858;28;20525;-51
2023/03/12 11:54:48;;;;;;;4.17;2.43;;;7.10;99.90;;;;;;5029888;28;20446;-51
2023/03/12 11:57:23;;;;;;;3.33;2.37;;;7.00;99.90;;;;;;5028546;28;20886;-52
2023/03/12 12:00:07;;;;;;;4.20;2.10;;;7.10;99.90;;;;;;5023611;28;20882;-52
2023/03/12 12:02:57;;;;;;;3.50;2.50;;;7.20;99.90;;;;;;5027757;28;20494;-52
2023/03/12 12:05:35;;;;;;;2.83;2.00;;;7.20;99.90;;;;;;5029970;28;20564;-53
2023/03/12 12:08:20;;;;;;;4.77;2.83;;;7.30;99.90;;;;;;5027687;28;20543;-52
2023/03/12 12:10:59;;;;;;;5.10;2.07;;;7.30;99.90;;;;;;5023509;28;20984;-51
2023/03/12 12:13:34;;;;;;;7.03;2.80;;;7.30;99.90;;;;;;5027053;28;20523;-52
2023/03/12 12:16:17;;;;;;;5.00;2.13;;;7.50;99.90;;;;;;5023259;28;20518;-53
2023/03/12 12:18:56;;;;;;;4.20;2.00;;;7.30;99.90;;;;;;5028731;28;21000;-52
2023/03/12 12:21:38;;;;;;;7.20;2.30;;;6.90;99.90;;;;;;5028455;28;20541;-53
2023/03/12 12:24:17;;;;;;;4.47;2.33;;;6.90;99.90;;;;;;5026166;28;20465;-53
2023/03/12 12:26:53;;;;;;;6.53;1.80;;;6.70;99.90;;;;;;5024569;28;20491;-51
2023/03/12 12:29:30;;;;;;;4.67;2.27;;;6.60;99.90;;;;;;5020966;28;20459;-53
2023/03/12 12:31:58;;;;;;;3.03;2.07;;;6.60;99.90;;;;;;5020846;28;20510;-54
2023/03/12 12:34:49;;;;;;;2.33;2.10;;;6.60;99.90;;;;;;5026790;28;20462;-52
2023/03/12 12:37:30;;;;;;;4.73;2.20;;;6.80;99.90;;;;;;5026720;28;20570;-52
2023/03/12 12:40:07;;;;;;;5.23;1.90;;;6.70;99.90;;;;;;5018675;28;20514;-51
2023/03/12 12:42:41;;;;;;;2.40;2.17;;;6.80;99.90;;;;;;5019048;28;20471;-54
2023/03/12 12:45:13;;;;;;;2.57;1.97;;;6.70;99.90;;;;;;5022912;28;20524;-52
2023/03/12 12:47:45;;;;;;;5.20;2.60;;;6.50;99.90;;;;;;5017357;28;20467;-51
2023/03/12 12:50:17;;;;;;;7.90;2.00;;;6.90;99.90;;;;;;5019066;28;21001;-52
2023/03/12 12:52:45;;;;;;;2.20;2.00;;;7.00;99.90;;;;;;5024017;28;20460;-51
2023/03/12 12:55:19;;;;;;;2.40;1.93;;;6.60;99.90;;;;;;5019845;28;20455;-52
2023/03/12 12:57:52;;;;;;;1.80;1.70;;;6.70;99.90;;;;;;5020868;28;20554;-53
2023/03/12 13:00:31;;;;;;;3.43;2.10;;;6.70;99.90;;;;;;5027086;28;20965;-52
2023/03/12 13:02:59;;;;;;;3.67;2.33;;;6.60;99.90;;;;;;5024341;28;20617;-51
2023/03/12 13:05:28;;;;;;;4.60;2.00;;;6.20;99.90;;;;;;5028673;28;20463;-51